Etusivu
METAR-TAF:

METAR-TAF

Lentoasemat :

El Goléa, Algeria

Leveyspiiri: 30-34N, Pituuspiiri: 002-52E, korkeus merenpinnasta: 397 m

Tämänhetkinen sää

Tämä raportti tehtiin 1 tunti ja 2 minuuttia sitten, kello 13.00 UTC
Tuuli 8 kn lännestä/luoteesta
Lämpötila 20°C
Kosteus 15%
Ilmanpaine 1023 hPa
Näkyvyys 10 km tai enemmän
ei pilviä alle 1500 m:ssä eikä cumulonimbus-pilviä

METAR: DAUE 251300Z 29008KT CAVOK 20/M07 Q1023

Aika: 15:02 (14:02 UTC)


TAF: puuttuu

Säähavainnot ja -ennusteet yli 4000 lentoasemalta (METAR- ja TAF-raportit).

Käytössä olevat sääasemat on merkitty karttaan keltaisilla ja punaisilla pisteillä.

Aseta hiiri pisteen päälle nähdäksesi sääaseman nimen.

Klikkaa sitten nähdäksesi säähavainnot ja -ennusteet.

Kartan vaihtaminen: klikkaa mustalla rastilla varustettuja vihreitä pisteitä, niin voit zoomata sisään; viivalla varustettua vihreää pistettä, niin voit zoomata ulos tai vihreitä nuolia, niin pääset viereisille kartoille.


METAR-TAF: